Madsen, Canada
Current Conditions -  °F | °C
As of 9:00 PM on Friday 31 Oct 2014 (Local Time) from CYRL Reporting Station
Few Clouds Few Clouds  
Wind Chill: 27°   Ceiling: Unl
Heat Index: 27°   Visibility: 15mi
Dew Point: 19°   Wind: 3mph
Humidity: 74%   Direction: 170°S
Pressure: 30.35"   Gusts: NA
Location:  50.97°N, 93.92°W
Report Text: CYRL 010200Z 17003KT 15SM FEW200 M03/M07 A3035 RMK CI1 LAST STFD OBS/ NEXT 01 0900UTC SLP304
Loading
Personal Weather Stations






























Interactive Weather Map
Tropical Storm Tracking
New forecast layout! Learn more

10-Day Weather Forecast

Advertisements
Track Severe Weather on mobile